Impacts METAR Board
IDs:

KEDC - Austin/Executive Arp, TX, US

Updated at: 0100 UTC 15 Aug 2020
Potential Impact None Slight Moderate High
Time 14/13Z 14/14Z 14/15Z 14/16Z 14/17Z 14/18Z 14/19Z 14/20Z 14/21Z 14/22Z 14/23Z 15/00Z 15/01Z
Temp79 82 86 90 93 95 99 99 100 102 102 100 97
Dewpt73 73 70 70 68 64 63 59 59 57 57 57 57
Altim29.95 29.97 29.97 29.97 29.97 29.94 29.92 29.90 29.87 29.85 29.83 29.83 29.84
VIS9 9 10 10 10 9 10 10 10 10 10 10 10
CIG-- -- -- -- -- -- -- -- -- -- -- -- --
CoverCLRCLRCLRCLRCLRCLRCLRCLRCLRCLRCLRCLRCLR
FltCatVFRVFRVFRVFRVFRVFRVFRVFRVFRVFRVFRVFRVFR
WX--------------------------
WDir2102102102102302102002102002001801800
WSpd9 8 12 10 7 10 5 6 10 10 8 7 0
WGst-- -- -- -- 14 16 16 15 -- -- -- -- --
Raw hourly METARs
KEDC 141255Z AUTO 21009KT 9SM CLR 26/23 A2995 RMK AO2
KEDC 141355Z AUTO 21008KT 9SM CLR 28/23 A2997 RMK AO2
KEDC 141455Z AUTO 21012KT 10SM CLR 30/21 A2997 RMK AO2
KEDC 141555Z AUTO 21010KT 10SM CLR 32/21 A2997 RMK AO2
KEDC 141655Z AUTO 23007G14KT 10SM CLR 34/20 A2997 RMK AO2
KEDC 141755Z AUTO 21010G16KT 160V220 9SM CLR 35/18 A2994 RMK AO2
KEDC 141855Z AUTO 20005G16KT 10SM CLR 37/17 A2992 RMK AO2
KEDC 141955Z AUTO 21006G15KT 10SM CLR 37/15 A2990 RMK AO2
KEDC 142055Z AUTO 20010KT 190V250 10SM CLR 38/15 A2987 RMK AO2
KEDC 142155Z AUTO 20010KT 10SM CLR 39/14 A2985 RMK AO2
KEDC 142255Z AUTO 18008KT 10SM CLR 39/14 A2983 RMK AO2
KEDC 142355Z AUTO 18007KT 10SM CLR 38/14 A2983 RMK AO2
KEDC 150055Z AUTO 00000KT 10SM CLR 36/14 A2984 RMK AO2